Time;durP1;ratioP1;P1;durP2;ratioP2;P2;SDS_P1;SDS_P2;PMS_P1;PMS_P2;Temp;Humidity;BMP_temperature;BMP_pressure;BME280_temperature;BME280_humidity;BME280_pressure;Samples;Min_cycle;Max_cycle;Signal;HPM_P1;HPM_P2
2022/08/14 00:00:19;;;;;;;0.00;0.00;;;20.30;99.90;;;;;;5095204;28;20384;-78
2022/08/14 00:02:46;;;;;;;0.10;0.03;;;20.30;99.90;;;;;;5078234;28;20082;-78
2022/08/14 00:05:15;;;;;;;0.00;0.00;;;20.30;99.90;;;;;;5095313;28;20056;-78
2022/08/14 00:07:40;;;;;;;0.45;0.13;;;20.20;99.90;;;;;;5078267;28;20055;-78
2022/08/14 00:10:10;;;;;;;0.00;0.00;;;20.20;99.90;;;;;;5095384;28;20055;-78
2022/08/14 00:12:40;;;;;;;0.00;0.00;;;20.10;99.90;;;;;;5095252;28;20384;-78
2022/08/14 00:15:17;;;;;;;0.03;0.03;;;20.10;99.90;;;;;;5078122;28;20040;-78
2022/08/14 00:17:43;;;;;;;0.35;0.20;;;20.10;99.90;;;;;;5096152;28;20101;-78
2022/08/14 00:20:09;;;;;;;0.00;0.00;;;20.10;99.90;;;;;;5079077;28;20145;-78
2022/08/14 00:22:35;;;;;;;0.10;0.10;;;20.10;99.90;;;;;;5077985;28;20059;-78
2022/08/14 00:25:01;;;;;;;0.00;0.00;;;20.10;99.90;;;;;;5095100;28;20048;-78
2022/08/14 00:27:26;;;;;;;0.00;0.00;;;20.10;99.90;;;;;;5078261;28;20166;-78
2022/08/14 00:29:52;;;;;;;0.00;0.00;;;20.00;99.90;;;;;;5095137;28;20101;-78
2022/08/14 00:32:18;;;;;;;0.30;0.30;;;20.00;99.90;;;;;;5094607;28;20051;-78
2022/08/14 00:34:43;;;;;;;0.00;0.00;;;19.90;99.90;;;;;;5094331;28;20123;-78
2022/08/14 00:37:09;;;;;;;0.00;0.00;;;20.00;99.90;;;;;;5094736;28;20047;-78
2022/08/14 00:39:35;;;;;;;0.00;0.00;;;19.90;99.90;;;;;;5094593;28;20070;-77
2022/08/14 00:42:01;;;;;;;0.00;0.00;;;19.90;99.90;;;;;;5077219;28;20451;-78
2022/08/14 00:44:28;;;;;;;0.00;0.00;;;19.90;99.90;;;;;;5077238;28;20066;-78
2022/08/14 00:46:53;;;;;;;0.00;0.00;;;19.80;99.90;;;;;;5094286;28;20097;-78
2022/08/14 00:49:19;;;;;;;0.10;0.10;;;19.80;99.90;;;;;;5094037;28;20040;-78
2022/08/14 00:51:45;;;;;;;0.00;0.00;;;19.80;99.90;;;;;;5094193;28;20097;-78
2022/08/14 00:54:12;;;;;;;0.10;0.10;;;19.80;99.90;;;;;;5076545;28;20108;-78
2022/08/14 00:56:38;;;;;;;0.10;0.10;;;19.80;99.90;;;;;;5093769;28;20431;-78
2022/08/14 00:59:04;;;;;;;0.00;0.00;;;19.80;99.90;;;;;;5077205;28;20131;-78
2022/08/14 01:01:32;;;;;;;0.00;0.00;;;19.80;99.90;;;;;;5093951;28;20044;-78
2022/08/14 01:04:00;;;;;;;0.10;0.00;;;19.70;99.90;;;;;;5077058;28;20100;-78
2022/08/14 01:06:28;;;;;;;0.00;0.00;;;19.70;99.90;;;;;;5094034;28;20051;-78
2022/08/14 01:08:54;;;;;;;0.47;0.10;;;19.70;99.90;;;;;;5076502;28;20043;-78
2022/08/14 01:11:21;;;;;;;0.65;0.25;;;19.70;99.90;;;;;;5075798;28;20139;-78
2022/08/14 01:13:49;;;;;;;0.00;0.00;;;19.60;99.90;;;;;;5075020;28;20407;-78
2022/08/14 01:16:16;;;;;;;0.15;0.00;;;19.60;99.90;;;;;;5076263;28;20062;-78
2022/08/14 01:21:30;;;;;;;;;;;19.60;99.90;;;;;;5094039;28;20106;-78
2022/08/14 01:23:56;;;;;;;0.08;0.00;;;19.60;99.90;;;;;;5093526;28;19955;-78
2022/08/14 01:26:24;;;;;;;0.00;0.00;;;19.50;99.90;;;;;;5093541;28;20044;-78
2022/08/14 01:28:54;;;;;;;0.00;0.00;;;19.50;99.90;;;;;;5094137;28;20050;-78
2022/08/14 01:31:28;;;;;;;0.00;0.00;;;19.50;99.90;;;;;;5076391;28;20052;-78
2022/08/14 01:33:57;;;;;;;1.60;0.17;;;19.40;99.90;;;;;;5077007;28;20051;-78
2022/08/14 01:36:27;;;;;;;0.10;0.10;;;19.50;99.90;;;;;;5076354;28;20040;-77
2022/08/14 01:38:57;;;;;;;0.00;0.00;;;19.40;99.90;;;;;;5093045;28;20559;-78
2022/08/14 01:41:26;;;;;;;0.00;0.00;;;19.40;99.90;;;;;;5093896;28;20044;-77
2022/08/14 01:43:53;;;;;;;0.10;0.10;;;19.40;99.90;;;;;;5076451;28;20048;-78
2022/08/14 01:46:24;;;;;;;0.00;0.00;;;19.30;99.90;;;;;;5076525;28;20472;-78
2022/08/14 01:48:53;;;;;;;0.05;0.00;;;19.30;99.90;;;;;;5076059;28;20130;-78
2022/08/14 01:51:24;;;;;;;0.00;0.00;;;19.30;99.90;;;;;;5076463;28;20063;-78
2022/08/14 01:53:56;;;;;;;0.00;0.00;;;19.40;99.90;;;;;;5093516;28;20096;-78
2022/08/14 01:56:34;;;;;;;0.25;0.20;;;19.30;99.90;;;;;;5076708;28;20069;-78
2022/08/14 01:59:01;;;;;;;0.00;0.00;;;19.20;99.90;;;;;;5076591;28;20132;-78
2022/08/14 02:01:26;;;;;;;0.00;0.00;;;19.20;99.90;;;;;;5093264;28;20131;-78
2022/08/14 02:03:52;;;;;;;0.00;0.00;;;19.10;99.90;;;;;;5093933;28;20502;-78
2022/08/14 02:06:18;;;;;;;0.13;0.08;;;19.10;99.90;;;;;;5093265;28;20385;-77
2022/08/14 02:08:44;;;;;;;0.00;0.00;;;19.10;99.90;;;;;;5093008;28;20131;-78
2022/08/14 02:11:16;;;;;;;0.00;0.00;;;19.10;99.90;;;;;;5093003;28;20051;-78
2022/08/14 02:13:43;;;;;;;0.00;0.00;;;19.00;99.90;;;;;;5076142;28;20063;-78
2022/08/14 02:16:10;;;;;;;0.03;0.03;;;19.00;99.90;;;;;;5093367;28;20082;-78
2022/08/14 02:18:36;;;;;;;0.00;0.00;;;19.00;99.90;;;;;;5093277;28;20083;-78
2022/08/14 02:21:03;;;;;;;0.00;0.00;;;19.00;99.90;;;;;;5076569;28;20052;-78
2022/08/14 02:23:31;;;;;;;0.00;0.00;;;18.90;99.90;;;;;;5076252;28;20056;-78
2022/08/14 02:26:03;;;;;;;0.00;0.00;;;18.90;99.90;;;;;;5076205;28;20052;-78
2022/08/14 02:28:30;;;;;;;0.00;0.00;;;18.90;99.90;;;;;;5076269;28;20052;-78
2022/08/14 02:30:59;;;;;;;0.10;0.00;;;18.90;99.90;;;;;;5093050;28;20040;-78
2022/08/14 02:33:27;;;;;;;0.35;0.10;;;18.90;99.90;;;;;;5093273;28;20499;-78
2022/08/14 02:35:54;;;;;;;0.10;0.10;;;18.90;99.90;;;;;;5076065;28;20483;-78
2022/08/14 02:38:20;;;;;;;0.00;0.00;;;18.90;99.90;;;;;;5075536;28;20059;-78
2022/08/14 02:40:46;;;;;;;1.30;0.00;;;18.90;99.90;;;;;;5076544;28;20052;-78
2022/08/14 02:43:12;;;;;;;0.00;0.00;;;18.90;99.90;;;;;;5093191;28;20419;-78
2022/08/14 02:45:39;;;;;;;0.00;0.00;;;18.90;99.90;;;;;;5093028;28;20097;-78
2022/08/14 02:48:06;;;;;;;0.00;0.00;;;18.90;99.90;;;;;;5075849;28;20051;-78
2022/08/14 02:50:34;;;;;;;0.10;0.05;;;18.80;99.90;;;;;;5075918;28;20391;-78
2022/08/14 02:53:00;;;;;;;0.00;0.00;;;18.70;99.90;;;;;;5092265;28;20059;-77
2022/08/14 02:55:26;;;;;;;0.00;0.00;;;18.80;99.90;;;;;;5092134;28;20052;-78
2022/08/14 02:57:51;;;;;;;0.00;0.00;;;18.70;99.90;;;;;;5075298;28;20058;-78
2022/08/14 03:00:18;;;;;;;0.17;0.00;;;18.70;99.90;;;;;;5093181;28;20431;-78
2022/08/14 03:02:43;;;;;;;0.03;0.00;;;18.70;99.90;;;;;;5079198;28;20056;-78
2022/08/14 03:05:11;;;;;;;0.00;0.00;;;18.70;99.90;;;;;;5096289;28;20058;-78
2022/08/14 03:07:37;;;;;;;0.45;0.28;;;18.70;99.90;;;;;;5079195;28;20063;-78
2022/08/14 03:10:03;;;;;;;0.00;0.00;;;18.70;99.90;;;;;;5096161;28;20052;-78
2022/08/14 03:12:31;;;;;;;0.22;0.10;;;18.70;99.90;;;;;;5096103;28;20047;-77
2022/08/14 03:14:57;;;;;;;0.00;0.00;;;18.70;99.90;;;;;;5078992;28;20067;-78
2022/08/14 03:17:23;;;;;;;0.00;0.00;;;18.70;99.90;;;;;;5096257;28;20373;-78
2022/08/14 03:19:51;;;;;;;0.00;0.00;;;18.60;99.90;;;;;;5096009;28;20040;-78
2022/08/14 03:22:17;;;;;;;0.05;0.05;;;18.60;99.90;;;;;;5096049;28;20044;-78
2022/08/14 03:24:42;;;;;;;0.10;0.10;;;18.70;99.90;;;;;;5095839;28;20480;-78
2022/08/14 03:27:12;;;;;;;0.20;0.20;;;18.70;99.90;;;;;;5078608;28;20209;-78
2022/08/14 03:29:39;;;;;;;0.00;0.00;;;18.60;99.90;;;;;;5096253;28;20040;-78
2022/08/14 03:32:05;;;;;;;0.20;0.10;;;18.60;99.90;;;;;;5096338;28;20044;-78
2022/08/14 03:34:31;;;;;;;0.00;0.00;;;18.60;99.90;;;;;;5096046;28;20131;-77
2022/08/14 03:36:57;;;;;;;0.00;0.00;;;18.60;99.90;;;;;;5095431;28;20154;-77
2022/08/14 03:39:23;;;;;;;1.75;0.20;;;18.60;99.90;;;;;;5095596;28;20056;-78
2022/08/14 03:41:52;;;;;;;0.10;0.10;;;18.60;99.90;;;;;;5095735;28;20047;-78
2022/08/14 03:44:18;;;;;;;0.00;0.00;;;18.60;99.90;;;;;;5078931;28;20048;-78
2022/08/14 03:46:44;;;;;;;0.00;0.00;;;18.60;99.90;;;;;;5095751;28;20368;-78
2022/08/14 03:49:09;;;;;;;0.00;0.00;;;18.60;99.90;;;;;;5078397;28;20052;-78
2022/08/14 03:51:36;;;;;;;0.00;0.00;;;18.50;99.90;;;;;;5078611;28;20052;-78
2022/08/14 03:54:07;;;;;;;0.10;0.00;;;18.50;99.90;;;;;;5094890;28;20063;-78
2022/08/14 03:56:35;;;;;;;0.00;0.00;;;18.50;99.90;;;;;;5078910;28;20047;-78
2022/08/14 03:59:04;;;;;;;0.00;0.00;;;18.50;99.90;;;;;;5078985;28;20052;-78
2022/08/14 04:01:29;;;;;;;0.00;0.00;;;18.50;99.90;;;;;;5078503;28;20083;-78
2022/08/14 04:03:58;;;;;;;0.10;0.10;;;18.50;99.90;;;;;;5095678;28;20086;-78
2022/08/14 04:06:24;;;;;;;0.00;0.00;;;18.50;99.90;;;;;;5095112;28;20044;-78
2022/08/14 04:08:50;;;;;;;0.08;0.08;;;18.40;99.90;;;;;;5095274;28;20051;-78
2022/08/14 04:11:17;;;;;;;0.10;0.00;;;18.40;99.90;;;;;;5095061;28;20047;-78
2022/08/14 04:13:44;;;;;;;0.00;0.00;;;18.40;99.90;;;;;;5094858;28;20063;-78
2022/08/14 04:16:22;;;;;;;0.22;0.22;;;18.40;99.90;;;;;;5078002;28;20036;-78
2022/08/14 04:18:53;;;;;;;0.00;0.00;;;18.50;99.90;;;;;;5078162;28;20044;-77
2022/08/14 04:21:23;;;;;;;0.03;0.00;;;18.50;99.90;;;;;;5095266;28;20128;-77
2022/08/14 04:23:51;;;;;;;0.00;0.00;;;18.50;99.90;;;;;;5094618;28;20044;-77
2022/08/14 04:26:18;;;;;;;0.00;0.00;;;18.50;99.90;;;;;;5078016;28;20369;-77
2022/08/14 04:28:45;;;;;;;0.00;0.00;;;18.60;99.90;;;;;;5077925;28;20044;-77
2022/08/14 04:31:11;;;;;;;0.00;0.00;;;18.60;99.90;;;;;;5094786;28;20178;-77
2022/08/14 04:33:37;;;;;;;0.03;0.03;;;18.60;99.90;;;;;;5077821;28;20044;-77
2022/08/14 04:36:03;;;;;;;2.83;0.25;;;18.60;99.90;;;;;;5094525;28;20051;-77
2022/08/14 04:43:34;;;;;;;0.00;0.00;;;18.70;99.90;;;;;;5094526;28;20058;-78
2022/08/14 04:44:18;;;;;;;0.20;0.00;;;18.70;99.90;;;;;;5094699;28;20059;-77
2022/08/14 04:49:28;;;;;;;0.00;0.00;;;18.70;99.90;;;;;;5094563;28;20087;-78
2022/08/14 04:51:54;;;;;;;0.00;0.00;;;18.80;99.90;;;;;;5094294;28;20110;-78
2022/08/14 04:54:20;;;;;;;0.00;0.00;;;18.80;99.90;;;;;;5093529;28;20491;-78
2022/08/14 04:56:46;;;;;;;0.10;0.10;;;18.70;99.90;;;;;;5093404;28;20047;-77
2022/08/14 04:59:11;;;;;;;2.17;0.25;;;18.80;99.90;;;;;;5077088;28;20048;-77
2022/08/14 05:01:42;;;;;;;0.63;0.32;;;18.80;99.90;;;;;;5093818;28;20044;-77
2022/08/14 05:04:07;;;;;;;4.10;0.85;;;18.80;99.90;;;;;;5093910;28;20047;-77
2022/08/14 05:06:33;;;;;;;0.00;0.00;;;18.80;99.90;;;;;;5093757;28;20127;-77
2022/08/14 05:08:58;;;;;;;0.00;0.00;;;18.80;99.90;;;;;;5093372;28;20062;-77
2022/08/14 05:11:24;;;;;;;0.00;0.00;;;18.80;99.90;;;;;;5093344;28;20555;-77
2022/08/14 05:13:50;;;;;;;0.00;0.00;;;18.80;99.90;;;;;;5076221;28;20056;-77
2022/08/14 05:16:15;;;;;;;0.22;0.10;;;18.90;99.90;;;;;;5093440;28;20044;-77
2022/08/14 05:18:42;;;;;;;0.13;0.00;;;18.90;99.90;;;;;;5093095;28;20127;-78
2022/08/14 05:21:09;;;;;;;0.00;0.00;;;18.90;99.90;;;;;;5093191;28;20059;-77
2022/08/14 05:23:38;;;;;;;0.00;0.00;;;19.00;99.90;;;;;;5092561;28;20044;-77
2022/08/14 05:26:11;;;;;;;21.55;1.00;;;19.00;99.90;;;;;;5093727;28;20067;-76
2022/08/14 05:28:43;;;;;;;0.15;0.05;;;19.10;99.90;;;;;;5076263;28;20110;-76
2022/08/14 05:31:10;;;;;;;0.10;0.10;;;19.10;99.90;;;;;;5076538;28;20048;-76
2022/08/14 05:33:35;;;;;;;0.00;0.00;;;19.10;99.90;;;;;;5076343;28;20340;-76
2022/08/14 05:36:05;;;;;;;0.00;0.00;;;19.10;99.90;;;;;;5092924;28;20036;-76
2022/08/14 05:38:34;;;;;;;0.03;0.03;;;19.20;99.90;;;;;;5076900;28;20048;-77
2022/08/14 05:41:01;;;;;;;0.00;0.00;;;19.20;99.90;;;;;;5076262;28;20149;-76
2022/08/14 05:43:29;;;;;;;0.10;0.00;;;19.30;99.90;;;;;;5093381;28;20052;-76
2022/08/14 05:45:57;;;;;;;0.00;0.00;;;19.30;99.90;;;;;;5076568;28;20083;-76
2022/08/14 05:48:23;;;;;;;0.00;0.00;;;19.30;99.90;;;;;;5093211;28;20063;-77
2022/08/14 05:50:50;;;;;;;0.00;0.00;;;19.40;99.90;;;;;;5075963;28;20146;-77
2022/08/14 05:53:16;;;;;;;0.00;0.00;;;19.40;99.90;;;;;;5075861;28;20056;-76
2022/08/14 05:55:42;;;;;;;0.00;0.00;;;19.40;99.90;;;;;;5092903;28;20047;-76
2022/08/14 05:58:08;;;;;;;0.00;0.00;;;19.50;99.90;;;;;;5076193;28;20442;-76
2022/08/14 06:00:37;;;;;;;0.00;0.00;;;19.50;99.90;;;;;;5075622;28;20051;-76
2022/08/14 06:03:06;;;;;;;0.10;0.10;;;19.60;99.90;;;;;;5093172;28;20139;-77
2022/08/14 06:05:32;;;;;;;0.00;0.00;;;19.70;99.90;;;;;;5076246;28;20044;-77
2022/08/14 06:07:59;;;;;;;0.00;0.00;;;19.80;99.90;;;;;;5076305;28;20083;-77
2022/08/14 06:10:27;;;;;;;0.10;0.10;;;19.80;99.90;;;;;;5076140;28;20052;-77
2022/08/14 06:12:53;;;;;;;2.30;0.55;;;19.90;99.90;;;;;;5076166;28;20052;-78
2022/08/14 06:15:19;;;;;;;0.10;0.10;;;20.00;99.90;;;;;;5075966;28;20044;-78
2022/08/14 06:17:45;;;;;;;0.00;0.00;;;20.10;99.90;;;;;;5092817;28;20079;-78
2022/08/14 06:20:12;;;;;;;0.45;0.17;;;20.10;99.90;;;;;;5092922;28;20047;-79
2022/08/14 06:22:42;;;;;;;0.00;0.00;;;20.20;99.90;;;;;;5076558;28;20101;-79
2022/08/14 06:25:13;;;;;;;0.00;0.00;;;20.30;99.90;;;;;;5075988;28;20063;-78
2022/08/14 06:27:43;;;;;;;0.00;0.00;;;20.30;99.90;;;;;;5092986;28;20048;-78
2022/08/14 06:30:17;;;;;;;0.00;0.00;;;20.40;99.90;;;;;;5081271;28;20380;-80
2022/08/14 06:32:44;;;;;;;0.08;0.08;;;20.40;99.90;;;;;;5080983;28;20109;-80
2022/08/14 06:35:11;;;;;;;0.00;0.00;;;20.50;99.90;;;;;;5076014;28;20476;-81
2022/08/14 06:37:54;;;;;;;0.00;0.00;;;20.60;99.90;;;;;;5076907;28;20407;-80
2022/08/14 06:40:42;;;;;;;0.00;0.00;;;20.60;99.90;;;;;;5077488;28;20043;-81
2022/08/14 06:43:10;;;;;;;0.00;0.00;;;20.70;99.90;;;;;;5094375;28;20612;-79
2022/08/14 06:45:39;;;;;;;0.00;0.00;;;20.80;99.90;;;;;;5078357;28;20051;-80
2022/08/14 06:48:20;;;;;;;0.00;0.00;;;20.90;99.90;;;;;;5078220;28;20094;-79
2022/08/14 06:50:46;;;;;;;0.00;0.00;;;21.10;99.90;;;;;;5093915;28;20186;-80
2022/08/14 06:53:13;;;;;;;1.25;0.45;;;21.20;99.90;;;;;;5077384;28;20064;-80
2022/08/14 06:55:41;;;;;;;0.00;0.00;;;21.40;99.90;;;;;;5078092;28;20044;-80
2022/08/14 06:58:14;;;;;;;0.52;0.20;;;21.60;99.90;;;;;;5094848;28;20406;-80
2022/08/14 07:05:44;;;;;;;0.38;0.22;;;22.30;99.90;;;;;;5076948;28;20395;-81
2022/08/14 07:06:12;;;;;;;0.08;0.03;;;24.30;99.90;;;;;;5115642;28;20143;-79
2022/08/14 07:08:38;;;;;;;1.08;0.00;;;25.30;99.90;;;;;;5115926;28;20566;-79
2022/08/14 07:11:04;;;;;;;0.20;0.20;;;26.00;99.90;;;;;;5116842;28;20134;-79
2022/08/14 07:13:30;;;;;;;0.00;0.00;;;26.60;99.90;;;;;;5099008;28;20062;-79
2022/08/14 07:15:57;;;;;;;0.10;0.10;;;26.70;99.20;;;;;;5099733;28;20084;-79
2022/08/14 07:18:27;;;;;;;0.00;0.00;;;26.90;99.10;;;;;;5116391;28;20043;-79
2022/08/14 07:20:55;;;;;;;0.08;0.08;;;26.80;98.20;;;;;;5099674;28;20524;-79
2022/08/14 07:23:22;;;;;;;0.08;0.03;;;26.80;98.30;;;;;;5116333;28;20479;-79
2022/08/14 07:25:50;;;;;;;0.32;0.10;;;26.80;97.70;;;;;;5099357;28;20188;-79
2022/08/14 07:28:18;;;;;;;0.00;0.00;;;26.90;97.10;;;;;;5116476;28;20395;-79
2022/08/14 07:30:44;;;;;;;0.45;0.32;;;26.90;96.30;;;;;;5099465;28;20398;-79
2022/08/14 07:33:12;;;;;;;0.00;0.00;;;26.70;97.10;;;;;;5099172;28;20043;-79
2022/08/14 07:35:39;;;;;;;0.00;0.00;;;26.50;97.60;;;;;;5098949;28;20483;-79
2022/08/14 07:38:06;;;;;;;0.10;0.10;;;26.30;97.10;;;;;;5115968;28;20055;-79
2022/08/14 07:40:33;;;;;;;0.17;0.17;;;26.00;97.00;;;;;;5099189;28;20051;-79
2022/08/14 07:43:00;;;;;;;0.00;0.00;;;25.90;97.50;;;;;;5116020;28;20059;-78
2022/08/14 07:45:26;;;;;;;0.05;0.05;;;25.70;97.80;;;;;;5098814;28;20050;-79
2022/08/14 07:47:55;;;;;;;0.00;0.00;;;25.70;98.60;;;;;;5097875;28;20066;-79
2022/08/14 07:50:20;;;;;;;1.38;0.30;;;25.60;98.00;;;;;;5099086;28;20062;-79
2022/08/14 07:52:48;;;;;;;0.00;0.00;;;25.50;98.40;;;;;;5115388;28;20475;-79
2022/08/14 07:55:15;;;;;;;0.00;0.00;;;25.60;98.30;;;;;;5099028;28;20047;-79
2022/08/14 07:57:43;;;;;;;0.15;0.05;;;25.60;98.00;;;;;;5098679;28;20047;-79
2022/08/14 08:00:15;;;;;;;0.00;0.00;;;25.50;98.20;;;;;;5098191;28;20047;-79
2022/08/14 08:02:43;;;;;;;0.00;0.00;;;25.60;98.10;;;;;;5098991;28;20135;-79
2022/08/14 08:05:09;;;;;;;2.33;0.30;;;25.60;98.10;;;;;;5115665;28;20039;-79
2022/08/14 08:07:36;;;;;;;0.00;0.00;;;25.60;98.80;;;;;;5115695;28;20039;-79
2022/08/14 08:10:33;;;;;;;0.35;0.35;;;25.60;98.60;;;;;;5098042;28;20546;-80
2022/08/14 08:12:59;;;;;;;0.00;0.00;;;25.60;97.80;;;;;;5115860;28;20059;-79
2022/08/14 08:15:26;;;;;;;0.05;0.05;;;25.60;97.70;;;;;;5115633;28;20044;-79
2022/08/14 08:17:53;;;;;;;0.00;0.00;;;25.60;98.10;;;;;;5098108;28;20491;-79
2022/08/14 08:20:23;;;;;;;0.03;0.00;;;25.60;98.10;;;;;;5098889;28;20063;-79
2022/08/14 08:22:49;;;;;;;0.00;0.00;;;25.60;97.70;;;;;;5093515;28;20059;-80
2022/08/14 08:25:18;;;;;;;0.05;0.05;;;25.60;98.40;;;;;;5098263;28;20039;-80
2022/08/14 08:27:59;;;;;;;0.00;0.00;;;25.70;98.40;;;;;;5115750;28;20491;-80
2022/08/14 08:30:26;;;;;;;2.30;0.43;;;25.70;98.00;;;;;;5115498;28;20043;-80
2022/08/14 08:32:53;;;;;;;0.08;0.08;;;25.90;98.90;;;;;;5115198;28;20090;-80
2022/08/14 08:35:22;;;;;;;0.00;0.00;;;25.90;97.80;;;;;;5114952;28;20066;-79
2022/08/14 08:37:49;;;;;;;0.75;0.20;;;26.00;98.30;;;;;;5098242;28;20050;-80
2022/08/14 08:40:40;;;;;;;0.20;0.20;;;26.10;96.60;;;;;;5115003;28;20039;-80
2022/08/14 08:43:21;;;;;;;0.38;0.20;;;26.20;97.30;;;;;;5097916;28;20043;-79
2022/08/14 08:46:01;;;;;;;0.68;0.20;;;26.20;97.40;;;;;;5097368;28;20105;-80
2022/08/14 08:48:50;;;;;;;0.10;0.00;;;26.30;97.20;;;;;;5115269;28;20043;-79
2022/08/14 08:51:26;;;;;;;0.00;0.00;;;26.40;96.90;;;;;;5097360;28;20055;-78
2022/08/14 08:54:07;;;;;;;0.10;0.10;;;26.50;96.20;;;;;;5114039;28;20055;-79
2022/08/14 08:56:33;;;;;;;0.40;0.10;;;26.60;96.40;;;;;;5114375;28;20487;-79
2022/08/14 08:58:59;;;;;;;0.20;0.20;;;26.70;96.60;;;;;;5113288;28;20093;-78
2022/08/14 09:01:32;;;;;;;0.00;0.00;;;26.80;95.80;;;;;;5114352;28;20047;-79
2022/08/14 09:04:03;;;;;;;0.00;0.00;;;26.90;95.40;;;;;;5113851;28;20390;-79
2022/08/14 09:06:28;;;;;;;0.08;0.08;;;26.90;95.20;;;;;;5096830;28;20082;-79
2022/08/14 09:08:55;;;;;;;0.10;0.10;;;27.00;96.20;;;;;;5097220;28;20082;-80
2022/08/14 09:11:22;;;;;;;0.03;0.03;;;27.10;96.20;;;;;;5113764;28;20086;-79
2022/08/14 09:13:52;;;;;;;0.00;0.00;;;27.20;94.90;;;;;;5096941;28;20063;-79
2022/08/14 09:16:20;;;;;;;2.47;0.10;;;27.30;94.70;;;;;;5096872;28;20039;-80
2022/08/14 09:18:46;;;;;;;0.00;0.00;;;27.40;94.50;;;;;;5096483;28;20063;-80
2022/08/14 09:21:12;;;;;;;0.10;0.10;;;27.50;95.10;;;;;;5096894;28;20119;-80
2022/08/14 09:23:40;;;;;;;0.00;0.00;;;27.60;95.20;;;;;;5097227;28;20047;-80
2022/08/14 09:26:05;;;;;;;0.35;0.30;;;27.70;96.50;;;;;;5113537;28;20402;-80
2022/08/14 09:28:31;;;;;;;0.05;0.05;;;27.80;94.10;;;;;;5096217;28;20056;-80
2022/08/14 09:30:58;;;;;;;0.00;0.00;;;27.90;94.90;;;;;;5096514;28;20487;-80
2022/08/14 09:33:35;;;;;;;0.10;0.10;;;27.90;94.40;;;;;;5113860;28;20161;-80
2022/08/14 09:36:32;;;;;;;0.00;0.00;;;28.00;93.50;;;;;;5113490;28;20181;-80
2022/08/14 09:39:11;;;;;;;0.38;0.30;;;28.10;93.80;;;;;;5096775;28;20088;-80
2022/08/14 09:41:56;;;;;;;0.35;0.10;;;28.30;93.90;;;;;;5113912;28;20148;-80
2022/08/14 09:44:40;;;;;;;;;;;28.40;93.60;;;;;;5114751;28;20047;-80
2022/08/14 09:47:06;;;;;;;0.10;0.10;;;28.50;93.70;;;;;;5113568;28;19920;-80
2022/08/14 09:49:37;;;;;;;0.08;0.08;;;28.50;92.80;;;;;;5113468;28;20039;-80
2022/08/14 09:52:05;;;;;;;0.10;0.00;;;28.60;92.50;;;;;;5113343;28;20055;-80
2022/08/14 09:54:45;;;;;;;0.10;0.00;;;28.60;91.60;;;;;;5095887;28;20530;-80
2022/08/14 09:57:24;;;;;;;0.10;0.10;;;28.70;92.20;;;;;;5113777;28;20063;-80
2022/08/14 09:59:50;;;;;;;0.13;0.13;;;28.70;91.20;;;;;;5096205;28;20462;-80
2022/08/14 10:02:30;;;;;;;0.73;0.20;;;28.80;91.30;;;;;;5113920;28;20047;-80
2022/08/14 10:05:08;;;;;;;0.50;0.22;;;28.90;90.50;;;;;;5096876;28;20475;-80
2022/08/14 10:07:52;;;;;;;0.00;0.00;;;28.90;91.60;;;;;;5096436;28;20495;-80
2022/08/14 10:10:37;;;;;;;0.00;0.00;;;29.00;90.80;;;;;;5113295;28;20498;-80
2022/08/14 10:13:06;;;;;;;0.00;0.00;;;29.00;90.10;;;;;;5113460;28;20048;-80
2022/08/14 10:15:36;;;;;;;0.05;0.05;;;29.10;90.00;;;;;;5113220;28;20126;-81
2022/08/14 10:18:14;;;;;;;0.60;0.30;;;29.20;90.10;;;;;;5113520;28;20047;-81
2022/08/14 10:20:43;;;;;;;0.00;0.00;;;29.40;90.00;;;;;;5095671;28;20043;-80
2022/08/14 10:23:17;;;;;;;0.10;0.08;;;29.50;88.50;;;;;;5113141;28;20043;-81
2022/08/14 10:25:44;;;;;;;;;;;29.50;87.00;;;;;;5096545;28;20051;-81
2022/08/14 10:28:14;;;;;;;0.00;0.00;;;29.60;88.20;;;;;;5096343;28;20286;-81
2022/08/14 10:30:40;;;;;;;0.15;0.15;;;29.70;87.70;;;;;;5096707;28;20054;-81
2022/08/14 10:33:06;;;;;;;0.20;0.20;;;29.80;85.30;;;;;;5096630;28;20048;-81
2022/08/14 10:35:40;;;;;;;0.43;0.20;;;30.00;85.80;;;;;;5096508;28;20055;-81
2022/08/14 10:38:06;;;;;;;;;;;30.00;86.10;;;;;;5113461;28;20047;-81
2022/08/14 10:40:32;;;;;;;0.10;0.10;;;30.10;86.70;;;;;;5113827;28;19927;-81
2022/08/14 10:42:57;;;;;;;0.20;0.20;;;30.30;87.80;;;;;;5113135;28;20390;-80
2022/08/14 10:45:31;;;;;;;1.45;0.20;;;30.30;85.10;;;;;;5112862;28;20097;-81
2022/08/14 10:47:57;;;;;;;0.30;0.30;;;30.30;83.00;;;;;;5113122;28;20044;-81
2022/08/14 10:50:37;;;;;;;0.10;0.00;;;30.30;83.10;;;;;;5095961;28;20126;-81
2022/08/14 10:53:06;;;;;;;0.00;0.00;;;30.30;81.80;;;;;;5112777;28;20594;-81
2022/08/14 10:55:38;;;;;;;0.10;0.10;;;30.40;82.20;;;;;;5095982;28;20040;-81
2022/08/14 10:58:10;;;;;;;0.00;0.00;;;30.40;78.70;;;;;;5096542;28;20097;-81
2022/08/14 11:00:38;;;;;;;0.80;0.52;;;30.50;80.90;;;;;;5113191;28;20135;-80
2022/08/14 11:03:08;;;;;;;0.00;0.00;;;30.60;80.90;;;;;;5113397;28;20066;-81
2022/08/14 11:05:47;;;;;;;0.05;0.05;;;30.70;81.60;;;;;;5113510;28;20052;-81
2022/08/14 11:08:15;;;;;;;0.00;0.00;;;30.80;78.70;;;;;;5096123;28;20063;-78
2022/08/14 11:10:45;;;;;;;0.05;0.05;;;31.00;79.10;;;;;;5094992;28;20056;-78
2022/08/14 11:13:20;;;;;;;0.08;0.00;;;30.90;79.10;;;;;;5112961;28;20044;-79
2022/08/14 11:15:50;;;;;;;0.08;0.00;;;31.10;80.70;;;;;;5096112;28;20106;-79
2022/08/14 11:18:16;;;;;;;0.10;0.00;;;31.30;78.70;;;;;;5112857;28;20047;-79
2022/08/14 11:20:57;;;;;;;0.00;0.00;;;31.40;80.30;;;;;;5112450;28;20047;-78
2022/08/14 11:23:34;;;;;;;0.00;0.00;;;31.40;76.40;;;;;;5116462;28;20056;-78
2022/08/14 11:26:01;;;;;;;0.10;0.10;;;31.40;75.70;;;;;;5099778;28;20088;-79
2022/08/14 11:28:31;;;;;;;0.20;0.20;;;31.30;76.00;;;;;;5116328;28;20047;-80
2022/08/14 11:30:58;;;;;;;0.00;0.00;;;31.10;74.20;;;;;;5116430;28;20039;-80
2022/08/14 11:33:30;;;;;;;0.00;0.00;;;31.00;74.00;;;;;;5098331;28;20055;-79
2022/08/14 11:36:03;;;;;;;0.10;0.10;;;31.10;74.50;;;;;;5116034;28;20428;-80
2022/08/14 11:38:44;;;;;;;0.10;0.10;;;31.10;75.90;;;;;;5116205;28;20040;-80
2022/08/14 11:41:11;;;;;;;0.00;0.00;;;30.90;75.50;;;;;;5117034;28;20051;-80
2022/08/14 11:43:42;;;;;;;0.10;0.10;;;30.90;75.50;;;;;;5116313;28;20051;-80
2022/08/14 11:46:09;;;;;;;0.10;0.10;;;31.10;75.00;;;;;;5098395;28;20062;-80
2022/08/14 11:48:44;;;;;;;0.00;0.00;;;31.30;75.30;;;;;;5112079;28;20542;-80
2022/08/14 11:51:26;;;;;;;0.22;0.13;;;31.40;73.40;;;;;;5098705;28;20507;-81
2022/08/14 11:54:06;;;;;;;0.10;0.00;;;31.50;74.40;;;;;;5098710;28;20052;-80
2022/08/14 11:56:36;;;;;;;0.10;0.10;;;31.50;73.80;;;;;;5098206;28;20093;-80
2022/08/14 11:59:02;;;;;;;2.85;0.65;;;31.70;74.80;;;;;;5098864;28;20044;-80
2022/08/14 12:01:30;;;;;;;0.00;0.00;;;31.80;71.50;;;;;;5098475;28;20181;-80
2022/08/14 12:04:17;;;;;;;0.10;0.10;;;32.00;72.80;;;;;;5115545;28;20510;-80
2022/08/14 12:06:47;;;;;;;0.00;0.00;;;31.80;71.30;;;;;;5098371;28;20122;-80
2022/08/14 12:09:14;;;;;;;0.00;0.00;;;31.70;70.00;;;;;;5115520;28;20054;-80
2022/08/14 12:11:41;;;;;;;0.10;0.10;;;31.70;71.70;;;;;;5097969;28;20052;-79
2022/08/14 12:14:08;;;;;;;0.10;0.10;;;31.80;71.80;;;;;;5098500;28;20058;-80
2022/08/14 12:16:37;;;;;;;0.00;0.00;;;32.00;70.70;;;;;;5116177;28;20463;-80
2022/08/14 12:19:02;;;;;;;0.22;0.22;;;32.10;69.80;;;;;;5115942;28;20365;-80
2022/08/14 12:21:28;;;;;;;0.20;0.10;;;32.00;69.40;;;;;;5098584;28;20138;-80
2022/08/14 12:24:03;;;;;;;0.28;0.20;;;32.20;69.50;;;;;;5097854;28;20059;-80
2022/08/14 12:26:30;;;;;;;0.00;0.00;;;32.30;68.90;;;;;;5115337;28;20137;-80
2022/08/14 12:29:15;;;;;;;0.00;0.00;;;32.50;69.90;;;;;;5115742;28;20089;-80
2022/08/14 12:31:43;;;;;;;0.08;0.00;;;32.70;67.70;;;;;;5114917;28;20101;-80
2022/08/14 12:34:11;;;;;;;0.03;0.03;;;32.80;68.10;;;;;;5097974;28;20377;-80
2022/08/14 12:36:37;;;;;;;0.20;0.00;;;32.70;65.70;;;;;;5114674;28;20450;-79
2022/08/14 12:39:21;;;;;;;0.10;0.05;;;32.70;65.30;;;;;;5114638;28;20086;-80
2022/08/14 12:41:55;;;;;;;0.00;0.00;;;32.90;67.00;;;;;;5097724;28;20085;-80
2022/08/14 12:44:33;;;;;;;0.00;0.00;;;33.00;66.30;;;;;;5114873;28;20048;-80
2022/08/14 12:47:11;;;;;;;0.00;0.00;;;33.10;66.20;;;;;;5097784;28;20043;-82
2022/08/14 12:49:37;;;;;;;0.40;0.20;;;33.10;65.20;;;;;;5115011;28;20079;-81
2022/08/14 12:52:06;;;;;;;0.00;0.00;;;33.20;64.50;;;;;;5097656;28;20445;-81
2022/08/14 12:54:32;;;;;;;0.00;0.00;;;33.20;64.50;;;;;;5096697;28;20063;-81
2022/08/14 12:57:14;;;;;;;0.10;0.00;;;33.20;63.20;;;;;;5114445;28;20052;-80
2022/08/14 12:59:39;;;;;;;0.60;0.00;;;33.10;64.80;;;;;;5097531;28;20122;-81
2022/08/14 13:02:05;;;;;;;0.52;0.13;;;32.90;63.80;;;;;;5114610;28;20086;-81
2022/08/14 13:04:32;;;;;;;0.00;0.00;;;32.60;66.30;;;;;;5097316;28;20108;-81
2022/08/14 13:07:07;;;;;;;0.10;0.10;;;32.50;63.30;;;;;;5096741;28;20060;-81
2022/08/14 13:09:34;;;;;;;0.82;0.40;;;32.60;62.70;;;;;;5097056;28;20044;-81